Gas Shuriken — V7QG7 — position and weather

sailwx.info

Track history (hours):
 
Tides and Currents Weather Stations Pressure Air Temp Water Temp Dewpoint Dewpoint Depression Visibility Wind Speed Wind Dir Waves Ship Positions

Gas Shuriken

Last reported at 2018-Feb-12 19:43 UTC. Time now 2018-Feb-21 07:16 UTC.
Position S 20°04' E 149°07'.
Warning: this ship's position is 8 days out of date.

Length 100 m; draft 5.5 m.

MMSI: 538003359.

Date/timePositionNaut miles runAvg speedWind from/ knotsBaromVisibWave heightAir tempDewpointWater temp
2018-Feb-12 19:43S 20°04' E 149°07'210.7
2018-Feb-12 19:30S 20°06' E 149°09'1110.6
2018-Feb-12 18:30S 20°13' E 149°17'1511.3
2018-Feb-12 17:10S 20°25' E 149°26'1111.7
2018-Feb-12 16:13S 20°34' E 149°34'811.8
2018-Feb-12 15:34S 20°39' E 149°39'511.7
2018-Feb-12 15:06S 20°43' E 149°43'211.6
2018-Feb-12 14:56S 20°45' E 149°45'2511.4
2018-Feb-12 12:43S 21°05' E 150°02'7511.3
2018-Feb-12 06:05S 22°01' E 150°55'1611.4
2018-Feb-12 04:42S 22°11' E 151°08'411.1
2018-Feb-12 04:20S 22°13' E 151°12'411.0
2018-Feb-12 04:00S 22°16' E 151°15'1110.9
2018-Feb-12 03:01S 22°23' E 151°23'011.5
2018-Feb-12 02:59S 22°23' E 151°24'511.0
2018-Feb-12 02:30S 22°27' E 151°28'610.9
2018-Feb-12 01:59S 22°30' E 151°33'811.1
2018-Feb-12 01:17S 22°35' E 151°39'1011.1
2018-Feb-12 00:24S 22°41' E 151°47'25110.6
2018-Feb-11 00:44S 26°40' E 153°15'38 9.8
2018-Feb-10 20:52S 27°18' E 153°13'810.4
2018-Feb-10 20:06S 27°24' E 153°09'1 4.4
2018-Feb-10 19:51S 27°25' E 153°08'0 0.0
2018-Feb-10 19:20S 27°25' E 153°08'0 0.0
2018-Feb-10 18:27S 27°25' E 153°08'0 0.0
2018-Feb-10 17:59S 27°25' E 153°08'0 0.0
2018-Feb-10 17:26S 27°25' E 153°08'0 0.0
2018-Feb-10 15:41S 27°25' E 153°08'0 0.0
2018-Feb-10 15:12S 27°25' E 153°08'0 0.0
2018-Feb-10 15:00S 27°25' E 153°08'0 0.0
2018-Feb-10 14:29S 27°25' E 153°08'0 0.0
2018-Feb-10 14:00S 27°25' E 153°08'0 0.0
2018-Feb-10 13:30S 27°25' E 153°08'0 0.0
2018-Feb-10 12:58S 27°25' E 153°08'0 0.0
2018-Feb-10 12:23S 27°25' E 153°08'0 0.0
2018-Feb-10 12:00S 27°25' E 153°08'0 0.0
2018-Feb-10 11:28S 27°25' E 153°08'0 0.0
2018-Feb-10 10:59S 27°25' E 153°08'0 0.0
2018-Feb-10 10:30S 27°25' E 153°08'0 0.0
2018-Feb-10 09:57S 27°25' E 153°08'0 0.0
2018-Feb-10 09:30S 27°25' E 153°08'0 0.1
2018-Feb-10 08:56S 27°25' E 153°08'2 4.7
2018-Feb-10 08:26S 27°23' E 153°09'5 9.2
2018-Feb-10 07:56S 27°19' E 153°12'4 9.8
2018-Feb-10 07:30S 27°16' E 153°15'5 8.7
2018-Feb-10 06:58S 27°12' E 153°18'510.3
2018-Feb-10 06:30S 27°08' E 153°21'510.6
2018-Feb-10 06:00S 27°04' E 153°18'611.9
2018-Feb-10 05:29S 26°59' E 153°13'13 3.5
2018-Feb-10 01:49S 26°47' E 153°18'411.3
2018-Feb-10 01:26S 26°49' E 153°22'611.1
2018-Feb-10 00:54S 26°53' E 153°27'2910.5
2018-Feb-09 22:10S 27°19' E 153°41'2910.8
2018-Feb-09 19:30S 27°48' E 153°42'510.5
2018-Feb-09 19:00S 27°53' E 153°43'3411.2
2018-Feb-09 16:00S 28°26' E 153°45'264 9.6
2018-Feb-08 12:30S 32°42' E 152°27'510.1
2018-Feb-08 12:00S 32°46' E 152°23'510.1
2018-Feb-08 11:30S 32°50' E 152°19'5 9.9
2018-Feb-08 11:00S 32°54' E 152°15'10 9.6
2018-Feb-08 10:00S 33°02' E 152°08'3510.1
2018-Feb-08 06:30S 33°30' E 151°42'21 0.4
2018-Feb-06 04:09S 33°48' E 151°29'4712.6
2018-Feb-06 00:25S 33°09' E 152°01'1112.3
2018-Feb-05 23:30S 33°00' E 152°10'27912.2
2018-Feb-05 00:40S 28°34' E 153°45'212.5
2018-Feb-05 00:30S 28°32' E 153°45'612.4
2018-Feb-05 00:00S 28°25' E 153°44'612.2
2018-Feb-04 23:30S 28°20' E 153°44'612.3
2018-Feb-04 23:00S 28°13' E 153°43'612.0
2018-Feb-04 22:29S 28°07' E 153°43'611.9
2018-Feb-04 22:00S 28°01' E 153°43'612.1
2018-Feb-04 21:29S 27°55' E 153°42'612.1
2018-Feb-04 21:00S 27°49' E 153°42'1211.7
2018-Feb-04 20:00S 27°38' E 153°41'611.5
2018-Feb-04 19:30S 27°32' E 153°41'511.3
2018-Feb-04 19:00S 27°26' E 153°41'711.0
2018-Feb-04 18:23S 27°19' E 153°40'  
Track history (hours):
 
Tides and Currents Weather Stations Pressure Air Temp Water Temp Dewpoint Dewpoint Depression Visibility Wind Speed Wind Dir Waves Ship Positions

Gas Shuriken

Last reported at 2018-Feb-12 19:43 UTC. Time now 2018-Feb-21 07:16 UTC.
Position S 20°04' E 149°07'.
Warning: this ship's position is 8 days out of date.

Length 100 m; draft 5.5 m.

MMSI: 538003359.

Date/timePositionNaut miles runAvg speedWind from/ knotsBaromVisibWave heightAir tempDewpointWater temp
2018-Feb-12 19:43S 20°04' E 149°07'210.7
2018-Feb-12 19:30S 20°06' E 149°09'1110.6
2018-Feb-12 18:30S 20°13' E 149°17'1511.3
2018-Feb-12 17:10S 20°25' E 149°26'1111.7
2018-Feb-12 16:13S 20°34' E 149°34'811.8
2018-Feb-12 15:34S 20°39' E 149°39'511.7
2018-Feb-12 15:06S 20°43' E 149°43'211.6
2018-Feb-12 14:56S 20°45' E 149°45'2511.4
2018-Feb-12 12:43S 21°05' E 150°02'7511.3
2018-Feb-12 06:05S 22°01' E 150°55'1611.4
2018-Feb-12 04:42S 22°11' E 151°08'411.1
2018-Feb-12 04:20S 22°13' E 151°12'411.0
2018-Feb-12 04:00S 22°16' E 151°15'1110.9
2018-Feb-12 03:01S 22°23' E 151°23'011.5
2018-Feb-12 02:59S 22°23' E 151°24'511.0
2018-Feb-12 02:30S 22°27' E 151°28'610.9
2018-Feb-12 01:59S 22°30' E 151°33'811.1
2018-Feb-12 01:17S 22°35' E 151°39'1011.1
2018-Feb-12 00:24S 22°41' E 151°47'25110.6
2018-Feb-11 00:44S 26°40' E 153°15'38 9.8
2018-Feb-10 20:52S 27°18' E 153°13'810.4
2018-Feb-10 20:06S 27°24' E 153°09'1 4.4
2018-Feb-10 19:51S 27°25' E 153°08'0 0.0
2018-Feb-10 19:20S 27°25' E 153°08'0 0.0
2018-Feb-10 18:27S 27°25' E 153°08'0 0.0
2018-Feb-10 17:59S 27°25' E 153°08'0 0.0
2018-Feb-10 17:26S 27°25' E 153°08'0 0.0
2018-Feb-10 15:41S 27°25' E 153°08'0 0.0
2018-Feb-10 15:12S 27°25' E 153°08'0 0.0
2018-Feb-10 15:00S 27°25' E 153°08'0 0.0
2018-Feb-10 14:29S 27°25' E 153°08'0 0.0
2018-Feb-10 14:00S 27°25' E 153°08'0 0.0
2018-Feb-10 13:30S 27°25' E 153°08'0 0.0
2018-Feb-10 12:58S 27°25' E 153°08'0 0.0
2018-Feb-10 12:23S 27°25' E 153°08'0 0.0
2018-Feb-10 12:00S 27°25' E 153°08'0 0.0
2018-Feb-10 11:28S 27°25' E 153°08'0 0.0
2018-Feb-10 10:59S 27°25' E 153°08'0 0.0
2018-Feb-10 10:30S 27°25' E 153°08'0 0.0
2018-Feb-10 09:57S 27°25' E 153°08'0 0.0
2018-Feb-10 09:30S 27°25' E 153°08'0 0.1
2018-Feb-10 08:56S 27°25' E 153°08'2 4.7
2018-Feb-10 08:26S 27°23' E 153°09'5 9.2
2018-Feb-10 07:56S 27°19' E 153°12'4 9.8
2018-Feb-10 07:30S 27°16' E 153°15'5 8.7
2018-Feb-10 06:58S 27°12' E 153°18'510.3
2018-Feb-10 06:30S 27°08' E 153°21'510.6
2018-Feb-10 06:00S 27°04' E 153°18'611.9
2018-Feb-10 05:29S 26°59' E 153°13'13 3.5
2018-Feb-10 01:49S 26°47' E 153°18'411.3
2018-Feb-10 01:26S 26°49' E 153°22'611.1
2018-Feb-10 00:54S 26°53' E 153°27'2910.5
2018-Feb-09 22:10S 27°19' E 153°41'2910.8
2018-Feb-09 19:30S 27°48' E 153°42'510.5
2018-Feb-09 19:00S 27°53' E 153°43'3411.2
2018-Feb-09 16:00S 28°26' E 153°45'264 9.6
2018-Feb-08 12:30S 32°42' E 152°27'510.1
2018-Feb-08 12:00S 32°46' E 152°23'510.1
2018-Feb-08 11:30S 32°50' E 152°19'5 9.9
2018-Feb-08 11:00S 32°54' E 152°15'10 9.6
2018-Feb-08 10:00S 33°02' E 152°08'3510.1
2018-Feb-08 06:30S 33°30' E 151°42'21 0.4
2018-Feb-06 04:09S 33°48' E 151°29'4712.6
2018-Feb-06 00:25S 33°09' E 152°01'1112.3
2018-Feb-05 23:30S 33°00' E 152°10'27912.2
2018-Feb-05 00:40S 28°34' E 153°45'212.5
2018-Feb-05 00:30S 28°32' E 153°45'612.4
2018-Feb-05 00:00S 28°25' E 153°44'612.2
2018-Feb-04 23:30S 28°20' E 153°44'612.3
2018-Feb-04 23:00S 28°13' E 153°43'612.0
2018-Feb-04 22:29S 28°07' E 153°43'611.9
2018-Feb-04 22:00S 28°01' E 153°43'612.1
2018-Feb-04 21:29S 27°55' E 153°42'612.1
2018-Feb-04 21:00S 27°49' E 153°42'1211.7
2018-Feb-04 20:00S 27°38' E 153°41'611.5
2018-Feb-04 19:30S 27°32' E 153°41'511.3
2018-Feb-04 19:00S 27°26' E 153°41'711.0
2018-Feb-04 18:23S 27°19' E 153°40'  

Dump ship's entire track history